Time;durP1;ratioP1;P1;durP2;ratioP2;P2;SDS_P1;SDS_P2;PMS_P1;PMS_P2;Temp;Humidity;BMP_temperature;BMP_pressure;BME280_temperature;BME280_humidity;BME280_pressure;Samples;Min_cycle;Max_cycle;Signal;HPM_P1;HPM_P2
2022/08/11 00:00:47;;;;;;;3.70;2.00;;;;;;;16.02;62.97;100194.97;8268521;28;20418;-77
2022/08/11 00:04:48;;;;;;;8.35;2.30;;;;;;;15.90;63.73;100192.06;8290684;28;20378;-77
2022/08/11 00:08:50;;;;;;;5.00;1.80;;;;;;;15.77;64.26;100191.06;8295270;28;20049;-78
2022/08/11 00:12:55;;;;;;;3.65;2.20;;;;;;;15.60;64.79;100183.63;8294730;28;20056;-78
2022/08/11 00:17:03;;;;;;;3.10;1.95;;;;;;;15.50;64.97;100186.63;8281156;28;20057;-77
2022/08/11 00:21:04;;;;;;;3.95;2.08;;;;;;;15.41;65.16;100183.06;8294169;28;20057;-77
2022/08/11 00:25:14;;;;;;;2.90;1.85;;;;;;;15.27;66.02;100187.81;8291127;28;20061;-77
2022/08/11 00:29:15;;;;;;;4.95;2.28;;;;;;;15.18;66.10;100192.41;8279249;28;20046;-78
2022/08/11 00:33:17;;;;;;;4.53;2.15;;;;;;;15.06;66.44;100181.31;8283129;28;20064;-77
2022/08/11 00:37:19;;;;;;;2.85;2.10;;;;;;;14.95;66.99;100182.69;8343112;28;20049;-78
2022/08/11 00:41:42;;;;;;;4.07;2.28;;;;;;;14.88;67.55;100187.75;8355842;28;20432;-77
2022/08/11 00:45:52;;;;;;;3.75;2.17;;;;;;;14.77;67.90;100188.00;8358124;28;20056;-77
2022/08/11 00:50:39;;;;;;;3.30;2.10;;;;;;;14.68;67.85;100179.00;8349850;28;20045;-77
2022/08/11 00:55:15;;;;;;;5.00;2.45;;;;;;;14.56;68.64;100176.03;8222921;28;20054;-77
2022/08/11 00:59:32;;;;;;;6.18;2.30;;;;;;;14.49;68.62;100186.53;8095334;29;20068;-77
2022/08/11 01:03:50;;;;;;;4.05;2.60;;;;;;;14.44;69.15;100178.50;8100403;29;20052;-77
2022/08/11 01:07:56;;;;;;;4.45;2.45;;;;;;;14.38;69.39;100187.91;8101761;29;20060;-77
2022/08/11 01:12:18;;;;;;;4.90;2.75;;;;;;;14.30;69.79;100188.56;8100275;29;20053;-77
2022/08/11 01:16:51;;;;;;;4.97;2.90;;;;;;;14.24;69.84;100184.38;8090380;29;20056;-77
2022/08/11 01:21:13;;;;;;;4.28;2.67;;;;;;;14.13;70.00;100186.50;8099751;29;20056;-77
2022/08/11 01:25:26;;;;;;;3.60;2.28;;;;;;;14.04;70.40;100184.81;8100354;29;20049;-77
2022/08/11 01:29:51;;;;;;;7.32;2.50;;;;;;;13.99;70.64;100182.22;8139809;29;20051;-77
2022/08/11 01:34:19;;;;;;;3.58;2.50;;;;;;;13.95;70.75;100177.41;8165872;28;20062;-77
2022/08/11 01:38:43;;;;;;;4.43;2.85;;;;;;;13.90;70.92;100177.53;8350461;28;20053;-77
2022/08/11 01:47:51;;;;;;;4.03;2.53;;;;;;;13.84;71.00;100170.59;8348047;28;20080;-77
2022/08/11 01:52:14;;;;;;;3.90;2.58;;;;;;;13.80;71.52;100174.22;8296967;28;20049;-76
2022/08/11 01:56:33;;;;;;;5.93;2.50;;;;;;;13.77;71.50;100169.38;8348817;28;20053;-77
2022/08/11 02:00:49;;;;;;;5.25;2.72;;;;;;;13.71;71.85;100187.69;8291212;28;20061;-77
2022/08/11 02:05:09;;;;;;;6.68;3.05;;;;;;;13.64;72.04;100176.44;8348971;28;20044;-77
2022/08/11 02:09:44;;;;;;;6.80;2.88;;;;;;;13.61;72.39;100177.03;8253764;28;20090;-77
2022/08/11 02:13:51;;;;;;;5.50;2.63;;;;;;;13.57;72.23;100167.91;8213905;28;20047;-76
2022/08/11 02:18:20;;;;;;;4.35;2.55;;;;;;;13.54;72.49;100160.34;8211906;28;20142;-77
2022/08/11 02:27:16;;;;;;;9.60;3.00;;;;;;;13.42;73.17;100162.78;8219410;28;20051;-77
2022/08/11 02:35:54;;;;;;;6.65;2.95;;;;;;;13.34;73.29;100171.59;8216525;28;20604;-77
2022/08/11 02:40:01;;;;;;;4.63;2.90;;;;;;;13.26;73.37;100166.91;8226250;28;20058;-77
2022/08/11 02:44:10;;;;;;;7.65;3.25;;;;;;;13.22;73.63;100168.59;8168509;29;20056;-77
2022/08/11 02:53:16;;;;;;;4.93;3.08;;;;;;;13.11;74.04;100163.34;8292678;28;20469;-77
2022/08/11 02:57:32;;;;;;;4.68;2.90;;;;;;;13.04;74.31;100162.94;8279020;28;20042;-77
2022/08/11 03:01:58;;;;;;;5.38;2.95;;;;;;;13.02;74.49;100170.53;8271909;28;20053;-77
2022/08/11 03:06:08;;;;;;;4.68;3.30;;;;;;;12.97;74.61;100162.50;8294765;28;20057;-77
2022/08/11 03:10:21;;;;;;;5.50;3.17;;;;;;;12.91;74.89;100174.53;8278003;28;20097;-77
2022/08/11 03:19:13;;;;;;;4.03;2.80;;;;;;;12.80;75.25;100172.28;8349665;28;20047;-77
2022/08/11 03:23:45;;;;;;;6.45;2.92;;;;;;;12.74;75.25;100168.88;8345397;28;20385;-77
2022/08/11 03:28:07;;;;;;;5.43;3.10;;;;;;;12.70;75.29;100184.13;8209902;28;20414;-77
2022/08/11 03:32:28;;;;;;;8.85;2.88;;;;;;;12.66;75.49;100177.69;8205941;28;20131;-77
2022/08/11 03:36:43;;;;;;;5.45;2.90;;;;;;;12.61;75.69;100180.47;8180928;29;20047;-77
2022/08/11 03:45:35;;;;;;;4.95;3.13;;;;;;;12.55;75.97;100181.66;8197000;29;20043;-77
2022/08/11 03:49:45;;;;;;;;;;;;;;;12.55;75.83;100181.66;8197111;29;20570;-78
2022/08/11 03:54:04;;;;;;;4.90;3.10;;;;;;;12.55;76.00;100182.47;8196889;28;20365;-77
2022/08/11 03:58:32;;;;;;;5.50;3.43;;;;;;;12.58;76.07;100175.66;8191596;29;20101;-77
2022/08/11 04:02:59;;;;;;;7.27;4.20;;;;;;;12.65;76.10;100171.47;8216247;28;20049;-78
2022/08/11 04:07:12;;;;;;;5.47;3.55;;;;;;;12.71;76.42;100169.47;8296397;28;20058;-77
2022/08/11 04:11:48;;;;;;;5.38;3.45;;;;;;;12.76;76.50;100161.25;8281348;28;20218;-77
2022/08/11 04:16:05;;;;;;;5.10;3.30;;;;;;;12.77;76.63;100162.06;8193973;29;20055;-77
2022/08/11 04:20:27;;;;;;;5.00;3.20;;;;;;;12.80;76.36;100167.69;8169762;29;20535;-78
2022/08/11 04:24:36;;;;;;;5.40;3.30;;;;;;;12.85;76.47;100159.47;8188496;28;20052;-78
2022/08/11 04:28:49;;;;;;;;;;;;;;;12.90;76.06;100167.50;8195744;29;20087;-77
2022/08/11 04:33:01;;;;;;;7.63;3.10;;;;;;;12.97;76.58;100169.81;8207784;28;20018;-78
2022/08/11 04:37:33;;;;;;;10.60;3.65;;;;;;;13.04;76.81;100162.13;8227816;28;20089;-77
2022/08/11 04:46:56;;;;;;;7.35;3.35;;;;;;;13.27;77.42;100165.81;8070309;29;20055;-78
2022/08/11 05:09:04;;;;;;;6.25;3.65;;;;;;;13.96;78.49;100173.56;8163573;29;20039;-77
2022/08/11 05:35:42;;;;;;;12.55;4.75;;;;;;;14.98;77.76;100203.81;8341932;28;20049;-77
2022/08/11 05:57:28;;;;;;;7.53;4.07;;;;;;;16.34;73.97;100221.75;8331868;28;20053;-77
2022/08/11 06:01:34;;;;;;;11.27;4.03;;;;;;;16.54;73.32;100211.34;8329247;28;20045;-77
2022/08/11 06:05:37;;;;;;;6.65;3.85;;;;;;;16.69;72.69;100224.53;8329986;28;20041;-77
2022/08/11 06:09:49;;;;;;;7.50;3.70;;;;;;;16.80;72.53;100225.81;8332795;28;20542;-76
2022/08/11 06:13:54;;;;;;;11.70;3.90;;;;;;;16.98;71.69;100221.91;8325602;28;20045;-77
2022/08/11 06:17:56;;;;;;;7.88;3.72;;;;;;;17.12;71.54;100228.00;8295347;28;20057;-78
2022/08/11 06:21:58;;;;;;;7.03;3.40;;;;;;;17.30;70.77;100223.28;8276762;28;20053;-77
2022/08/11 06:26:00;;;;;;;7.25;2.90;;;;;;;17.44;69.95;100228.53;8295110;28;20054;-77
2022/08/11 06:30:12;;;;;;;5.57;3.40;;;;;;;17.57;69.44;100216.59;8272508;28;20049;-77
2022/08/11 06:34:27;;;;;;;7.13;2.80;;;;;;;17.72;68.91;100214.13;8280004;28;20403;-81
2022/08/11 06:38:57;;;;;;;9.88;3.40;;;;;;;17.89;68.14;100213.25;8285699;28;20049;-77
2022/08/11 06:43:06;;;;;;;5.80;3.15;;;;;;;18.10;67.44;100208.63;8263070;28;20146;-77
2022/08/11 06:47:08;;;;;;;7.53;2.83;;;;;;;18.22;66.93;100204.34;8235246;28;20166;-77
2022/08/11 06:51:13;;;;;;;4.70;2.83;;;;;;;18.32;66.65;100204.75;8183697;28;20047;-78
2022/08/11 07:04:28;;;;;;;6.05;2.83;;;;;;;18.66;66.65;100203.72;8216646;28;20066;-78
2022/08/11 07:17:41;;;;;;;4.60;2.78;;;;;;;19.05;65.40;100191.41;8235345;28;20050;-78
2022/08/11 07:30:25;;;;;;;4.47;3.10;;;;;;;19.36;64.38;100204.56;8284120;28;20108;-77
2022/08/11 07:34:35;;;;;;;4.53;2.65;;;;;;;19.55;62.52;100204.88;8331883;28;20049;-77
2022/08/11 07:38:50;;;;;;;4.28;3.03;;;;;;;19.67;62.08;100210.34;8326676;28;20041;-77
2022/08/11 07:42:52;;;;;;;5.25;3.08;;;;;;;19.78;61.97;100211.47;8349676;28;20056;-77
2022/08/11 07:55:40;;;;;;;6.15;3.00;;;;;;;20.20;60.49;100205.72;8332192;28;20042;-77
2022/08/11 08:21:21;;;;;;;5.18;2.42;;;;;;;20.61;58.33;100199.94;8308869;28;20042;-80
2022/08/11 08:25:30;;;;;;;10.40;2.65;;;;;;;20.72;58.32;100193.94;8358974;28;20071;-78
2022/08/11 08:33:56;;;;;;;5.32;2.55;;;;;;;20.94;58.56;100201.59;8360850;28;20092;-78
2022/08/11 08:37:58;;;;;;;15.07;2.60;;;;;;;21.08;58.18;100193.75;8339660;28;20041;-78
2022/08/11 08:42:02;;;;;;;4.18;2.50;;;;;;;21.21;56.49;100189.78;8338059;28;20447;-78
2022/08/11 08:46:07;;;;;;;8.77;2.40;;;;;;;21.27;54.64;100191.13;8359122;28;20045;-78
2022/08/11 08:50:11;;;;;;;6.68;2.60;;;;;;;21.37;53.80;100187.84;8357118;28;20132;-77
2022/08/11 08:54:39;;;;;;;5.35;2.70;;;;;;;21.55;54.30;100171.00;8358725;28;20053;-77
2022/08/11 08:58:45;;;;;;;6.63;2.58;;;;;;;21.75;54.68;100178.16;8177358;29;20498;-78
2022/08/11 09:02:49;;;;;;;4.65;2.60;;;;;;;22.00;53.55;100165.78;8144716;29;20094;-78
2022/08/11 09:06:50;;;;;;;3.28;2.10;;;;;;;22.16;51.75;100174.78;8097989;29;20507;-78
2022/08/11 09:15:16;;;;;;;6.63;3.75;;;;;;;22.12;50.98;100173.94;8124387;29;20412;-78
2022/08/11 09:19:19;;;;;;;8.48;2.88;;;;;;;22.06;49.81;100180.88;8128874;29;20579;-78
2022/08/11 09:27:40;;;;;;;2.00;1.70;;;;;;;21.98;49.80;100173.63;8115025;29;20808;-78
2022/08/11 09:31:41;;;;;;;5.60;2.10;;;;;;;22.07;49.90;100176.97;8111490;29;20456;-78
2022/08/11 09:35:45;;;;;;;5.88;2.30;;;;;;;22.14;50.17;100177.13;8211417;28;20054;-76
2022/08/11 09:48:28;;;;;;;3.90;2.17;;;;;;;22.47;49.29;100184.88;8291324;28;20050;-78
2022/08/11 09:52:36;;;;;;;5.07;2.08;;;;;;;22.57;49.03;100178.00;8291722;28;20088;-78
2022/08/11 10:00:59;;;;;;;3.33;2.03;;;;;;;23.06;49.42;100173.47;8306770;28;20119;-77
2022/08/11 10:09:22;;;;;;;4.40;2.70;;;;;;;23.42;48.80;100152.03;8264777;28;20050;-78
2022/08/11 10:13:33;;;;;;;12.45;2.63;;;;;;;23.58;48.01;100147.97;8245752;28;20137;-77
2022/08/11 10:18:40;;;;;;;6.35;2.10;;;;;;;23.59;48.11;100146.03;8279112;28;20126;-78
2022/08/11 10:35:07;;;;;;;4.25;1.95;;;;;;;23.93;46.15;100127.63;8248233;28;20072;-78
2022/08/11 10:39:10;;;;;;;1.80;1.50;;;;;;;24.07;44.77;100121.47;8247646;28;20058;-77
2022/08/11 10:43:14;;;;;;;6.35;1.42;;;;;;;23.96;44.53;100133.16;8288874;28;20506;-78
2022/08/11 10:47:35;;;;;;;6.97;1.50;;;;;;;24.11;44.79;100122.34;8247878;28;20049;-77
2022/08/11 11:00:17;;;;;;;1.77;1.30;;;;;;;24.32;43.53;100122.63;8293204;28;20076;-77
2022/08/11 11:04:30;;;;;;;5.47;1.60;;;;;;;24.22;43.37;100117.75;8293664;28;20065;-78
2022/08/11 11:21:24;;;;;;;6.82;1.92;;;;;;;24.27;43.61;100103.66;8229033;28;20138;-78
2022/08/11 11:26:11;;;;;;;6.47;1.70;;;;;;;23.65;43.54;100094.91;8229324;28;20054;-78
2022/08/11 11:30:14;;;;;;;5.10;1.50;;;;;;;24.10;42.37;100087.63;8189612;28;20141;-77
2022/08/11 11:34:42;;;;;;;3.83;1.60;;;;;;;24.42;42.16;100088.84;8227006;28;20051;-78
2022/08/11 11:38:43;;;;;;;3.80;1.45;;;;;;;24.44;42.73;100086.47;8237652;28;20051;-78
2022/08/11 11:42:45;;;;;;;3.10;1.50;;;;;;;24.94;40.99;100087.00;8275181;28;20049;-77
2022/08/11 11:46:46;;;;;;;3.05;1.52;;;;;;;25.15;40.41;100079.69;8326852;28;20053;-77
2022/08/11 11:50:48;;;;;;;6.05;2.10;;;;;;;24.59;41.77;100077.16;8307083;28;20509;-79
2022/08/11 11:54:53;;;;;;;4.35;1.73;;;;;;;24.10;42.66;100071.06;8326546;28;20141;-78
2022/08/11 12:03:14;;;;;;;3.85;1.30;;;;;;;25.04;41.80;100053.94;8325153;28;20061;-78
2022/08/11 12:16:02;;;;;;;3.95;1.55;;;;;;;24.20;40.21;100053.88;8324888;28;20052;-78
2022/08/11 12:20:04;;;;;;;3.67;1.40;;;;;;;23.78;42.17;100049.41;8323950;28;20049;-78
2022/08/11 12:28:25;;;;;;;3.78;1.80;;;;;;;24.57;40.26;100040.88;8326229;28;20062;-79
2022/08/11 12:32:31;;;;;;;3.65;1.52;;;;;;;25.08;38.66;100037.38;8335298;28;20079;-79
2022/08/11 12:36:40;;;;;;;4.90;1.33;;;;;;;25.37;38.60;100028.13;8317720;28;20071;-79
2022/08/11 12:53:45;;;;;;;9.70;1.45;;;;;;;25.43;37.39;100003.66;8340258;28;20068;-78
2022/08/11 13:06:28;;;;;;;3.60;1.40;;;;;;;25.75;36.51;99987.25;8327057;28;20496;-79
2022/08/11 13:14:52;;;;;;;4.40;1.50;;;;;;;25.87;35.46;99986.88;8281908;28;20458;-79
2022/08/11 13:18:53;;;;;;;1.95;1.42;;;;;;;25.90;35.92;99980.56;8273736;28;20049;-79
2022/08/11 13:22:56;;;;;;;3.97;1.40;;;;;;;26.06;36.62;99986.56;8274795;28;20050;-78
2022/08/11 13:26:58;;;;;;;3.60;1.48;;;;;;;26.00;36.51;99983.38;8281922;28;20050;-78
2022/08/11 13:31:13;;;;;;;2.63;1.33;;;;;;;25.83;36.59;99977.78;8273694;28;20218;-77
2022/08/11 13:35:15;;;;;;;2.95;1.27;;;;;;;26.66;35.37;99974.78;8269548;28;20045;-79
2022/08/11 13:39:16;;;;;;;2.80;1.42;;;;;;;28.19;33.46;99975.19;8270482;28;20048;-78
2022/08/11 13:43:19;;;;;;;6.60;1.40;;;;;;;29.17;31.62;99967.25;8361713;28;20044;-79
2022/08/11 13:47:22;;;;;;;4.13;1.48;;;;;;;30.46;30.85;99957.63;8361407;28;20475;-79
2022/08/11 13:51:30;;;;;;;1.77;1.00;;;;;;;31.30;28.23;99954.59;8359838;28;20098;-77
2022/08/11 13:55:31;;;;;;;2.40;1.20;;;;;;;32.58;27.58;99957.41;8342350;28;20402;-78
2022/08/11 13:59:32;;;;;;;1.38;1.00;;;;;;;32.88;26.28;99954.28;8359633;28;20053;-78
2022/08/11 14:03:34;;;;;;;1.35;0.90;;;;;;;33.67;25.52;99936.88;8343896;28;20542;-78
2022/08/11 14:07:38;;;;;;;5.93;1.25;;;;;;;34.80;24.33;99948.56;8340662;28;20041;-78
2022/08/11 14:16:06;;;;;;;2.17;1.23;;;;;;;35.54;23.17;99946.69;8339599;28;20037;-79
2022/08/11 14:20:09;;;;;;;2.25;1.33;;;;;;;36.00;22.76;99938.53;8345567;28;20053;-78
2022/08/11 14:24:10;;;;;;;3.05;1.08;;;;;;;32.94;25.41;99941.28;8347062;28;20782;-78
2022/08/11 14:28:12;;;;;;;4.15;1.42;;;;;;;32.93;25.88;99945.34;8354661;28;20064;-78
2022/08/11 14:32:14;;;;;;;2.45;1.30;;;;;;;34.63;24.80;99929.06;8359023;28;20113;-78
2022/08/11 14:36:20;;;;;;;6.47;1.40;;;;;;;34.43;24.30;99920.09;8339181;28;20102;-78
2022/08/11 14:49:21;;;;;;;9.73;1.50;;;;;;;36.22;21.83;99930.81;8356404;28;20053;-78
2022/08/11 14:53:23;;;;;;;2.47;1.23;;;;;;;36.89;22.04;99927.25;8320064;28;20128;-79
2022/08/11 14:57:27;;;;;;;3.47;1.23;;;;;;;37.30;21.33;99930.69;8355985;28;20045;-79
2022/08/11 15:05:56;;;;;;;2.17;1.25;;;;;;;38.65;19.96;99931.50;8279773;28;20103;-79
2022/08/11 15:09:59;;;;;;;1.35;1.00;;;;;;;38.64;19.74;99924.28;8241699;28;20097;-79
2022/08/11 15:14:01;;;;;;;5.13;1.50;;;;;;;38.55;19.95;99915.84;8288922;28;20061;-79
2022/08/11 15:18:06;;;;;;;2.15;1.33;;;;;;;37.94;20.18;99918.03;8276202;28;20053;-78
2022/08/11 15:45:46;;;;;;;6.63;1.48;;;;;;;30.05;27.54;99915.28;8354147;28;20053;-79
2022/08/11 15:48:51;;;;;;;3.60;1.40;;;;;;;28.70;29.31;99910.50;8341819;28;20107;-79
2022/08/11 15:52:57;;;;;;;2.53;1.13;;;;;;;28.17;29.56;99914.50;8360483;28;20048;-78
2022/08/11 15:57:03;;;;;;;3.53;1.23;;;;;;;27.68;30.42;99915.56;8308444;28;20044;-79
2022/08/11 16:05:25;;;;;;;3.90;1.38;;;;;;;27.40;31.41;99913.69;8357335;28;20151;-80
2022/08/11 16:09:33;;;;;;;10.52;3.45;;;;;;;27.03;31.77;99905.88;8360941;28;20176;-79
2022/08/11 16:17:45;;;;;;;;;;;;;;;26.59;32.17;99913.84;8340332;28;20136;-79
2022/08/11 16:21:49;;;;;;;5.75;1.75;;;;;;;26.36;32.64;99900.41;8295682;28;20315;-79
2022/08/11 16:25:51;;;;;;;2.42;1.63;;;;;;;26.21;33.09;99902.34;8360963;28;20055;-79
2022/08/11 16:29:54;;;;;;;3.58;1.70;;;;;;;25.95;33.01;99909.03;8334404;28;20091;-79
2022/08/11 16:33:56;;;;;;;4.53;1.70;;;;;;;25.77;33.37;99913.72;8361304;28;20096;-79
2022/08/11 16:46:58;;;;;;;4.80;1.60;;;;;;;25.29;34.31;99915.88;8347170;28;20044;-79
2022/08/11 16:51:00;;;;;;;4.43;1.75;;;;;;;25.14;34.64;99914.22;8350187;28;20041;-80
2022/08/11 16:55:02;;;;;;;7.47;2.10;;;;;;;24.98;35.01;99910.97;8298417;28;20551;-79
2022/08/11 16:59:13;;;;;;;5.75;1.80;;;;;;;24.87;35.20;99910.09;8361768;28;20099;-79
2022/08/11 17:16:22;;;;;;;7.90;1.42;;;;;;;24.17;39.60;99933.16;8352306;28;20046;-80
2022/08/11 17:20:26;;;;;;;3.35;1.40;;;;;;;23.87;40.94;99925.78;8332480;28;20084;-79
2022/08/11 17:24:30;;;;;;;8.38;1.50;;;;;;;23.59;42.29;99930.94;8357203;28;20045;-79
2022/08/11 17:28:32;;;;;;;5.95;1.20;;;;;;;23.39;42.93;99921.22;8319131;28;20048;-79
2022/08/11 17:37:03;;;;;;;8.77;1.40;;;;;;;22.95;44.72;99930.06;8364548;28;20048;-79
2022/08/11 17:49:45;;;;;;;8.20;1.20;;;;;;;22.55;46.22;99921.56;8354575;28;20503;-78
2022/08/11 18:06:49;;;;;;;6.63;1.60;;;;;;;22.29;48.03;99917.63;8352382;28;20049;-78
